createdAt,value
2022-10-10T00:01:47.969Z,6.50
2022-10-10T00:04:17.138Z,6.50
2022-10-10T00:06:46.108Z,6.30
2022-10-10T00:09:15.097Z,6.20
2022-10-10T00:11:44.179Z,6.20
2022-10-10T00:14:13.325Z,6.10
2022-10-10T00:16:43.755Z,6.20
2022-10-10T00:19:12.819Z,6.20
2022-10-10T00:21:42.005Z,6.20
2022-10-10T00:24:10.946Z,6.20
2022-10-10T00:26:39.976Z,6.20
2022-10-10T00:29:09.055Z,6.20
2022-10-10T00:31:38.093Z,6.20
2022-10-10T00:34:08.486Z,6.20
2022-10-10T00:36:37.806Z,6.20
2022-10-10T00:39:06.832Z,6.10
2022-10-10T00:41:35.895Z,6.20
2022-10-10T00:44:10.738Z,6.20
2022-10-10T00:46:40.255Z,6.00
2022-10-10T00:49:14.605Z,6.00
2022-10-10T00:51:45.147Z,5.90
2022-10-10T00:54:15.890Z,5.90
2022-10-10T00:56:49.598Z,5.90
2022-10-10T00:59:20.331Z,5.80
2022-10-10T01:01:49.526Z,5.70
2022-10-10T01:04:45.174Z,5.60
2022-10-10T01:07:17.398Z,5.50
2022-10-10T01:09:48.317Z,5.40
2022-10-10T01:12:23.085Z,5.30
2022-10-10T01:14:59.607Z,5.20
2022-10-10T01:17:34.649Z,5.10
2022-10-10T01:20:32.553Z,5.20
2022-10-10T01:23:17.915Z,5.10
2022-10-10T01:25:59.898Z,5.00
2022-10-10T01:28:40.314Z,5.00
2022-10-10T01:31:11.976Z,4.90
2022-10-10T01:33:51.780Z,5.00
2022-10-10T01:36:28.487Z,5.00
2022-10-10T01:39:03.879Z,5.10
2022-10-10T01:41:38.366Z,5.10
2022-10-10T01:44:08.779Z,5.10
2022-10-10T01:46:37.817Z,5.10
2022-10-10T01:49:06.791Z,5.20
2022-10-10T01:51:52.720Z,5.20
2022-10-10T01:54:37.185Z,5.20
2022-10-10T01:57:21.124Z,5.20
2022-10-10T02:00:03.635Z,5.20
2022-10-10T02:02:43.376Z,5.20
2022-10-10T02:05:20.998Z,5.20
2022-10-10T02:07:54.012Z,5.20
2022-10-10T02:10:27.965Z,5.10
2022-10-10T02:12:58.696Z,5.10
2022-10-10T02:15:36.345Z,5.20
2022-10-10T02:18:07.718Z,5.10
2022-10-10T02:20:37.540Z,5.10
2022-10-10T02:23:08.105Z,4.90
2022-10-10T02:25:40.638Z,4.90
2022-10-10T02:28:14.659Z,4.80
2022-10-10T02:30:46.859Z,4.80
2022-10-10T02:33:20.774Z,4.80
2022-10-10T02:35:52.400Z,4.90
2022-10-10T02:38:21.911Z,4.70
2022-10-10T02:40:51.597Z,4.70
2022-10-10T02:43:21.554Z,4.60
2022-10-10T02:45:52.071Z,4.60
2022-10-10T02:48:21.040Z,4.60
2022-10-10T02:50:50.290Z,4.40
2022-10-10T02:53:19.301Z,4.20
2022-10-10T02:55:48.291Z,4.10
2022-10-10T02:58:17.285Z,4.10
2022-10-10T03:00:46.383Z,4.00
2022-10-10T03:03:16.794Z,4.00
2022-10-10T03:05:47.010Z,3.80
2022-10-10T03:08:16.095Z,3.70
2022-10-10T03:10:56.350Z,3.60
2022-10-10T03:13:25.715Z,3.50
2022-10-10T03:15:55.472Z,3.60
2022-10-10T03:18:26.185Z,3.70
2022-10-10T03:20:56.258Z,3.80
2022-10-10T03:23:27.229Z,3.90
2022-10-10T03:25:56.264Z,4.00
2022-10-10T03:28:25.404Z,4.00
2022-10-10T03:30:54.355Z,4.10
2022-10-10T03:33:23.484Z,4.10
2022-10-10T03:35:53.895Z,4.20
2022-10-10T03:38:22.922Z,4.30
2022-10-10T03:40:52.006Z,4.40
2022-10-10T03:43:21.057Z,4.40
2022-10-10T03:45:50.078Z,4.50
2022-10-10T03:48:19.106Z,4.50
2022-10-10T03:50:48.124Z,4.50
2022-10-10T03:53:18.497Z,4.50
2022-10-10T03:55:47.509Z,4.50
2022-10-10T03:58:18.999Z,4.40
2022-10-10T04:00:56.450Z,4.40
2022-10-10T04:03:25.950Z,4.40
2022-10-10T04:05:55.194Z,4.40
2022-10-10T04:08:25.994Z,4.30
2022-10-10T04:10:56.397Z,4.20
2022-10-10T04:13:27.753Z,4.30
2022-10-10T04:15:58.299Z,4.20
2022-10-10T04:18:27.501Z,4.20
2022-10-10T04:20:56.616Z,4.30
2022-10-10T04:23:27.009Z,4.30
2022-10-10T04:25:56.399Z,4.30
2022-10-10T04:28:25.588Z,4.30
2022-10-10T04:30:56.442Z,4.10
2022-10-10T04:33:25.568Z,4.10
2022-10-10T04:35:54.714Z,4.10
2022-10-10T04:38:23.873Z,4.20
2022-10-10T04:40:54.558Z,4.00
2022-10-10T04:43:23.549Z,4.00
2022-10-10T04:45:52.713Z,3.90
2022-10-10T04:48:21.796Z,3.70
2022-10-10T04:50:53.748Z,3.70
2022-10-10T04:53:23.445Z,3.60
2022-10-10T04:55:54.090Z,3.70
2022-10-10T04:58:23.341Z,3.70
2022-10-10T05:00:56.709Z,3.60
2022-10-10T05:03:26.250Z,3.70
2022-10-10T05:05:55.661Z,3.80
2022-10-10T05:08:24.850Z,3.80
2022-10-10T05:10:55.683Z,3.80
2022-10-10T05:13:24.725Z,4.00
2022-10-10T05:15:54.301Z,4.10
2022-10-10T05:18:24.242Z,4.10
2022-10-10T05:20:58.639Z,4.30
2022-10-10T05:23:30.810Z,4.40
2022-10-10T05:26:02.162Z,4.50
2022-10-10T05:28:31.816Z,4.60
2022-10-10T05:31:01.862Z,4.70
2022-10-10T05:33:32.267Z,4.80
2022-10-10T05:36:07.151Z,4.90
2022-10-10T05:38:38.403Z,5.00
2022-10-10T05:41:10.024Z,5.10
2022-10-10T05:43:39.664Z,5.10
2022-10-10T05:46:08.964Z,5.30
2022-10-10T05:48:38.127Z,5.20
2022-10-10T05:51:08.936Z,5.30
2022-10-10T05:53:38.392Z,5.20
2022-10-10T05:56:10.211Z,5.40
2022-10-10T05:58:39.726Z,5.30
2022-10-10T06:01:11.806Z,5.40
2022-10-10T06:03:44.082Z,5.60
2022-10-10T06:06:13.771Z,5.60
2022-10-10T06:08:43.171Z,5.80
2022-10-10T06:11:16.246Z,6.10
2022-10-10T06:13:47.473Z,6.20
2022-10-10T06:16:17.137Z,6.40
2022-10-10T06:18:46.682Z,6.60
2022-10-10T06:21:16.211Z,6.80
2022-10-10T06:23:46.046Z,7.00
2022-10-10T06:26:17.484Z,7.30
2022-10-10T06:28:46.998Z,7.50
2022-10-10T06:31:16.886Z,7.90
2022-10-10T06:33:46.843Z,8.20
2022-10-10T06:36:17.166Z,8.40
2022-10-10T06:38:47.369Z,8.60
2022-10-10T06:41:18.012Z,8.70
2022-10-10T06:43:49.282Z,8.80
2022-10-10T06:46:19.388Z,9.00
2022-10-10T06:48:49.560Z,9.20
2022-10-10T06:51:19.961Z,9.20
2022-10-10T06:53:50.040Z,9.30
2022-10-10T06:56:27.421Z,9.50
2022-10-10T06:58:58.186Z,9.60
2022-10-10T07:01:32.306Z,9.60
2022-10-10T07:04:02.362Z,9.70
2022-10-10T07:06:34.868Z,9.90
2022-10-10T07:09:04.950Z,10.10
2022-10-10T07:11:36.010Z,10.40
2022-10-10T07:20:17.849Z,11.00
2022-10-10T07:22:54.040Z,11.30
2022-10-10T07:25:36.921Z,11.80
2022-10-10T07:29:23.024Z,12.30
2022-10-10T07:32:48.675Z,12.80
2022-10-10T07:35:19.122Z,13.40
2022-10-10T07:37:54.706Z,14.10
2022-10-10T07:40:34.011Z,14.50
2022-10-10T07:43:06.753Z,14.70
2022-10-10T07:45:55.508Z,15.00
2022-10-10T07:51:50.945Z,15.50
2022-10-10T07:54:20.408Z,15.70
2022-10-10T07:56:50.441Z,16.00
2022-10-10T07:59:20.052Z,16.10
2022-10-10T08:01:49.532Z,16.10
2022-10-10T08:04:21.242Z,15.90
2022-10-10T08:06:50.628Z,16.10
2022-10-10T08:09:20.880Z,16.10
2022-10-10T08:11:50.340Z,16.20
2022-10-10T08:14:20.196Z,16.70
2022-10-10T08:16:50.186Z,16.80
2022-10-10T08:19:21.871Z,17.00
2022-10-10T08:21:51.459Z,16.30
2022-10-10T08:24:21.314Z,16.40
2022-10-10T08:26:51.119Z,17.00
2022-10-10T08:29:20.800Z,17.40
2022-10-10T08:31:50.021Z,17.70
2022-10-10T08:34:20.530Z,17.90
2022-10-10T08:36:50.374Z,17.90
2022-10-10T08:39:19.948Z,18.20
2022-10-10T08:41:53.639Z,18.40
2022-10-10T08:44:34.759Z,18.10
2022-10-10T08:47:32.068Z,18.30
2022-10-10T08:57:41.449Z,17.30
2022-10-10T09:00:46.370Z,17.20
2022-10-10T09:03:48.720Z,17.30
2022-10-10T09:07:02.028Z,17.10
2022-10-10T09:13:17.467Z,17.00
2022-10-10T09:15:56.401Z,16.70
2022-10-10T09:18:43.600Z,17.00
2022-10-10T09:21:18.530Z,16.70
2022-10-10T09:23:57.117Z,16.60
2022-10-10T09:26:32.776Z,16.50
2022-10-10T09:29:12.942Z,16.70
2022-10-10T09:31:50.036Z,16.90
2022-10-10T09:34:27.658Z,16.20
2022-10-10T09:37:02.926Z,15.80
2022-10-10T09:39:45.475Z,15.80
2022-10-10T09:42:33.174Z,15.90
2022-10-10T09:45:05.236Z,16.20
2022-10-10T09:47:36.115Z,16.40
2022-10-10T09:50:07.332Z,15.80
2022-10-10T09:52:37.645Z,16.00
2022-10-10T09:55:23.884Z,15.90
2022-10-10T09:57:59.074Z,16.20
2022-10-10T10:00:36.159Z,16.40
2022-10-10T10:03:17.886Z,16.30
2022-10-10T10:05:56.606Z,15.80
2022-10-10T10:08:31.657Z,15.80
2022-10-10T10:11:02.786Z,15.90
2022-10-10T10:13:39.484Z,16.10
2022-10-10T10:16:12.514Z,15.90
2022-10-10T10:18:44.925Z,15.60
2022-10-10T10:21:19.915Z,15.20
2022-10-10T10:24:02.126Z,15.10
2022-10-10T10:26:45.636Z,15.20
2022-10-10T10:29:45.645Z,15.30
2022-10-10T10:32:23.477Z,15.10
2022-10-10T10:35:18.756Z,15.20
2022-10-10T10:38:09.095Z,15.10
2022-10-10T10:40:44.365Z,15.40
2022-10-10T10:43:42.448Z,15.60
2022-10-10T10:46:28.256Z,15.20
2022-10-10T10:49:09.159Z,15.00
2022-10-10T10:51:57.851Z,15.20
2022-10-10T10:54:45.380Z,14.90
2022-10-10T10:57:32.903Z,15.10
2022-10-10T11:00:33.762Z,15.40
2022-10-10T11:05:19.329Z,15.50
2022-10-10T11:07:24.639Z,15.70
2022-10-10T11:13:21.428Z,15.40
2022-10-10T11:18:54.628Z,15.70
2022-10-10T11:21:30.926Z,15.70
2022-10-10T11:24:08.595Z,15.70
2022-10-10T11:26:42.836Z,15.80
2022-10-10T11:29:18.118Z,15.80
2022-10-10T11:31:56.127Z,15.60
2022-10-10T11:34:31.888Z,15.70
2022-10-10T11:37:07.078Z,15.70
2022-10-10T11:39:44.045Z,15.80
2022-10-10T11:42:20.765Z,15.40
2022-10-10T11:44:56.774Z,15.50
2022-10-10T11:47:32.816Z,15.50
2022-10-10T11:50:11.511Z,15.80
2022-10-10T11:52:52.175Z,16.10
2022-10-10T11:55:28.205Z,16.20
2022-10-10T11:58:17.897Z,16.40
2022-10-10T12:00:55.554Z,16.20
2022-10-10T12:03:29.887Z,16.30
2022-10-10T12:06:06.677Z,16.40
2022-10-10T12:08:42.849Z,16.20
2022-10-10T12:11:21.486Z,16.40
2022-10-10T12:13:59.317Z,16.50
2022-10-10T12:16:36.376Z,16.60
2022-10-10T12:19:09.645Z,16.50
2022-10-10T12:21:58.116Z,16.60
2022-10-10T12:24:30.925Z,16.80
2022-10-10T12:27:45.155Z,16.60
2022-10-10T12:30:22.675Z,16.50
2022-10-10T12:32:55.966Z,16.60
2022-10-10T12:35:50.526Z,16.40
2022-10-10T12:38:24.593Z,16.40
2022-10-10T12:41:20.926Z,16.50
2022-10-10T12:44:14.515Z,16.50
2022-10-10T12:46:45.714Z,16.60
2022-10-10T12:49:22.115Z,16.70
2022-10-10T12:52:05.423Z,16.70
2022-10-10T12:54:41.475Z,16.70
2022-10-10T12:57:21.255Z,16.70
2022-10-10T12:59:57.518Z,16.70
2022-10-10T13:02:30.675Z,16.70
2022-10-10T13:05:05.086Z,16.70
2022-10-10T13:07:35.964Z,16.70
2022-10-10T13:10:18.436Z,16.70
2022-10-10T13:12:47.868Z,16.70
2022-10-10T13:15:23.963Z,16.70
2022-10-10T13:17:54.087Z,16.80
2022-10-10T13:20:39.553Z,16.80
2022-10-10T13:23:15.252Z,17.00
2022-10-10T13:25:48.594Z,17.10
2022-10-10T13:28:22.385Z,17.10
2022-10-10T13:30:55.485Z,17.10
2022-10-10T13:33:30.765Z,17.20
2022-10-10T13:36:08.776Z,17.20
2022-10-10T13:38:38.795Z,17.10
2022-10-10T13:41:09.165Z,17.10
2022-10-10T13:43:38.958Z,17.10
2022-10-10T13:46:23.165Z,17.10
2022-10-10T13:48:53.807Z,17.10
2022-10-10T13:51:43.235Z,17.10
2022-10-10T13:54:44.326Z,17.10
2022-10-10T13:57:17.726Z,17.10
2022-10-10T13:59:51.475Z,17.10
2022-10-10T14:02:25.705Z,17.10
2022-10-10T14:04:56.596Z,17.10
2022-10-10T14:07:29.645Z,17.10
2022-10-10T14:10:01.136Z,17.00
2022-10-10T14:12:35.715Z,17.00
2022-10-10T14:15:06.995Z,17.00
2022-10-10T14:17:39.007Z,16.90
2022-10-10T14:20:14.366Z,16.90
2022-10-10T14:22:44.137Z,16.80
2022-10-10T14:25:14.358Z,16.70
2022-10-10T14:27:44.405Z,16.70
2022-10-10T14:30:17.301Z,16.70
2022-10-10T14:32:48.195Z,16.80
2022-10-10T14:35:17.582Z,16.80
2022-10-10T14:37:47.715Z,16.70
2022-10-10T14:40:21.716Z,16.60
2022-10-10T14:42:52.526Z,16.60
2022-10-10T14:45:26.605Z,16.60
2022-10-10T14:47:58.839Z,16.60
2022-10-10T14:50:33.716Z,16.60
2022-10-10T14:53:04.444Z,16.60
2022-10-10T14:55:34.896Z,16.70
2022-10-10T14:58:04.767Z,16.60
2022-10-10T15:00:34.746Z,16.60
2022-10-10T15:03:05.677Z,16.50
2022-10-10T15:05:35.886Z,16.20
2022-10-10T15:08:06.914Z,16.20
2022-10-10T15:10:37.355Z,16.20
2022-10-10T15:13:07.426Z,16.10
2022-10-10T15:15:38.036Z,16.10
2022-10-10T15:18:32.123Z,15.90
2022-10-10T15:21:00.297Z,15.90
2022-10-10T15:23:30.496Z,15.80
2022-10-10T15:26:01.845Z,15.70
2022-10-10T15:28:31.144Z,15.60
2022-10-10T15:31:08.445Z,15.50
2022-10-10T15:33:42.956Z,15.30
2022-10-10T15:36:19.210Z,15.20
2022-10-10T15:38:49.197Z,15.10
2022-10-10T15:41:19.555Z,15.00
2022-10-10T15:43:52.411Z,15.00
2022-10-10T15:46:22.659Z,14.90
2022-10-10T15:48:53.649Z,14.70
2022-10-10T15:51:23.217Z,14.60
2022-10-10T15:53:52.737Z,14.50
2022-10-10T15:56:22.026Z,14.60
2022-10-10T15:58:56.566Z,14.50
2022-10-10T16:01:26.666Z,14.40
2022-10-10T16:04:00.937Z,14.40
2022-10-10T16:06:31.457Z,14.30
2022-10-10T16:09:26.743Z,14.10
2022-10-10T16:11:52.985Z,14.10
2022-10-10T16:14:23.189Z,14.00
2022-10-10T16:16:53.125Z,13.90
2022-10-10T16:19:24.189Z,13.90
2022-10-10T16:21:56.402Z,13.90
2022-10-10T16:24:25.745Z,13.90
2022-10-10T16:26:55.465Z,13.90
2022-10-10T16:29:26.087Z,13.70
2022-10-10T16:31:55.540Z,13.70
2022-10-10T16:34:26.297Z,13.60
2022-10-10T16:36:55.583Z,13.70
2022-10-10T16:39:25.823Z,13.60
2022-10-10T16:41:59.778Z,13.50
2022-10-10T16:44:30.556Z,13.50
2022-10-10T16:47:08.632Z,13.40
2022-10-10T16:49:41.077Z,13.40
2022-10-10T16:52:10.680Z,13.30
2022-10-10T16:54:40.240Z,13.10
2022-10-10T17:00:40.656Z,13.10
2022-10-10T17:03:10.984Z,13.00
2022-10-10T17:05:42.862Z,12.90
2022-10-10T17:08:12.822Z,12.80
2022-10-10T17:10:44.463Z,12.80
2022-10-10T17:13:13.852Z,12.80
2022-10-10T17:15:43.613Z,12.70
2022-10-10T17:18:12.994Z,12.70
2022-10-10T17:20:45.600Z,12.60
2022-10-10T17:23:15.906Z,12.60
2022-10-10T17:25:49.861Z,12.50
2022-10-10T17:28:25.915Z,12.40
2022-10-10T17:31:01.537Z,12.30
2022-10-10T17:33:32.692Z,12.20
2022-10-10T17:36:09.576Z,12.10
2022-10-10T17:38:40.522Z,12.20
2022-10-10T17:41:11.401Z,12.10
2022-10-10T17:43:44.602Z,12.00
2022-10-10T17:46:33.696Z,12.00
2022-10-10T17:49:04.604Z,11.90
2022-10-10T17:51:36.001Z,11.90
2022-10-10T17:54:06.975Z,11.90
2022-10-10T17:56:37.953Z,11.90
2022-10-10T17:59:07.970Z,11.90
2022-10-10T18:01:38.147Z,11.80
2022-10-10T18:04:11.782Z,11.80
2022-10-10T18:06:47.470Z,11.70
2022-10-10T18:09:18.304Z,11.70
2022-10-10T18:11:49.056Z,11.70
2022-10-10T18:14:20.133Z,11.70
2022-10-10T18:16:50.825Z,11.70
2022-10-10T18:19:21.597Z,11.70
2022-10-10T18:22:14.604Z,11.60
2022-10-10T18:24:52.508Z,11.60
2022-10-10T18:27:23.730Z,11.40
2022-10-10T18:29:54.613Z,11.50
2022-10-10T18:32:24.797Z,11.50
2022-10-10T18:34:54.540Z,11.40
2022-10-10T18:37:25.730Z,11.40
2022-10-10T18:39:55.599Z,11.30
2022-10-10T18:42:26.578Z,11.30
2022-10-10T18:44:56.256Z,11.40
2022-10-10T18:47:25.651Z,11.40
2022-10-10T18:49:55.187Z,11.40
2022-10-10T18:52:29.092Z,11.20
2022-10-10T18:54:58.999Z,11.20
2022-10-10T18:57:28.711Z,11.20
2022-10-10T19:00:00.851Z,11.20
2022-10-10T19:02:33.863Z,11.00
2022-10-10T19:05:03.312Z,11.00
2022-10-10T19:07:34.311Z,10.90
2022-10-10T19:10:04.903Z,10.90
2022-10-10T19:12:36.960Z,10.80
2022-10-10T19:15:06.868Z,10.90
2022-10-10T19:17:36.867Z,10.90
2022-10-10T19:20:07.640Z,10.90
2022-10-10T19:22:38.378Z,10.90
2022-10-10T19:25:08.524Z,10.90
2022-10-10T19:27:38.649Z,10.90
2022-10-10T19:30:09.311Z,10.80
2022-10-10T19:32:39.000Z,10.70
2022-10-10T19:35:09.260Z,10.70
2022-10-10T19:37:40.213Z,10.60
2022-10-10T19:40:10.104Z,10.70
2022-10-10T19:42:39.362Z,10.70
2022-10-10T19:45:09.579Z,10.70
2022-10-10T19:47:41.733Z,10.70
2022-10-10T19:50:11.190Z,10.70
2022-10-10T19:52:42.058Z,10.60
2022-10-10T19:55:11.888Z,10.60
2022-10-10T19:57:41.302Z,10.60
2022-10-10T20:00:13.522Z,10.50
2022-10-10T20:02:44.234Z,10.40
2022-10-10T20:05:13.601Z,10.40
2022-10-10T20:07:45.245Z,10.40
2022-10-10T20:10:14.972Z,10.40
2022-10-10T20:12:44.580Z,10.40
2022-10-10T20:15:14.080Z,10.40
2022-10-10T20:17:43.236Z,10.30
2022-10-10T20:20:12.625Z,10.30
2022-10-10T20:22:42.935Z,10.40
2022-10-10T20:25:13.919Z,10.30
2022-10-10T20:27:42.930Z,10.40
2022-10-10T20:30:12.862Z,10.40
2022-10-10T20:32:42.260Z,10.30
2022-10-10T20:35:12.505Z,10.30
2022-10-10T20:37:41.924Z,10.30
2022-10-10T20:40:13.260Z,10.40
2022-10-10T20:42:42.494Z,10.30
2022-10-10T20:45:11.661Z,10.10
2022-10-10T20:47:40.830Z,10.20
2022-10-10T20:50:10.540Z,10.20
2022-10-10T20:52:39.682Z,10.20
2022-10-10T20:55:09.813Z,10.20
2022-10-10T20:57:40.361Z,10.20
2022-10-10T21:00:10.871Z,10.10
2022-10-10T21:02:40.133Z,10.20
2022-10-10T21:05:09.751Z,10.20
2022-10-10T21:07:39.032Z,10.00
2022-10-10T21:10:09.272Z,10.10
2022-10-10T21:12:39.815Z,10.00
2022-10-10T21:15:09.519Z,10.00
2022-10-10T21:17:39.094Z,9.90
2022-10-10T21:20:09.019Z,10.00
2022-10-10T21:22:38.266Z,9.90
2022-10-10T21:25:09.041Z,9.90
2022-10-10T21:27:39.745Z,9.90
2022-10-10T21:30:10.049Z,9.90
2022-10-10T21:32:39.077Z,9.90
2022-10-10T21:35:08.841Z,9.90
2022-10-10T21:37:38.140Z,9.90
2022-10-10T21:40:08.534Z,9.90
2022-10-10T21:42:37.658Z,9.90
2022-10-10T21:45:10.057Z,9.80
2022-10-10T21:47:39.115Z,9.80
2022-10-10T21:50:09.801Z,9.80
2022-10-10T21:52:39.066Z,9.80
2022-10-10T21:55:08.645Z,9.70
2022-10-10T21:57:37.809Z,9.80
2022-10-10T22:00:10.304Z,9.80
2022-10-10T22:02:40.877Z,9.80
2022-10-10T22:05:12.028Z,9.80
2022-10-10T22:07:42.311Z,9.80
2022-10-10T22:10:14.844Z,9.80
2022-10-10T22:12:44.198Z,9.80
2022-10-10T22:15:15.475Z,9.80
2022-10-10T22:17:44.750Z,9.70
2022-10-10T22:20:14.943Z,9.80
2022-10-10T22:22:45.395Z,9.80
2022-10-10T22:25:17.640Z,9.80
2022-10-10T22:27:46.922Z,9.70
2022-10-10T22:30:17.550Z,9.80
2022-10-10T22:32:46.645Z,9.80
2022-10-10T22:35:15.634Z,9.80
2022-10-10T22:37:44.670Z,9.80
2022-10-10T22:40:14.259Z,9.80
2022-10-10T22:42:43.306Z,9.90
2022-10-10T22:45:12.566Z,9.90
2022-10-10T22:47:43.298Z,9.80
2022-10-10T22:50:13.315Z,9.70
2022-10-10T22:52:42.879Z,9.70
2022-10-10T22:55:17.386Z,9.70
2022-10-10T22:57:47.824Z,9.80
2022-10-10T23:00:18.204Z,9.90
2022-10-10T23:02:48.835Z,9.90
2022-10-10T23:05:17.979Z,9.90
2022-10-10T23:07:47.044Z,9.90
2022-10-10T23:10:15.978Z,9.90
2022-10-10T23:12:45.012Z,10.00
2022-10-10T23:15:14.042Z,10.00
2022-10-10T23:17:43.021Z,10.00
2022-10-10T23:20:13.812Z,10.00
2022-10-10T23:22:42.877Z,10.00
2022-10-10T23:25:12.012Z,9.90
2022-10-10T23:27:41.107Z,9.90
2022-10-10T23:30:10.972Z,9.90
2022-10-10T23:32:40.020Z,9.90
2022-10-10T23:35:23.239Z,10.00
2022-10-10T23:38:07.148Z,10.00
2022-10-10T23:40:47.732Z,9.90
2022-10-10T23:43:52.060Z,9.90
2022-10-10T23:46:35.197Z,9.90
2022-10-10T23:49:04.282Z,10.00
2022-10-10T23:51:33.535Z,10.00
2022-10-10T23:54:17.983Z,10.00
2022-10-10T23:57:00.084Z,10.00
2022-10-10T23:59:43.246Z,9.90
